Time,TemperatureF,DewpointF,PressureIn,WindDirection,WindDirectionDegrees,WindSpeedMPH,WindSpeedGustMPH,Humidity,HourlyPrecipIn,Conditions,Clouds,dailyrainin,SolarRadiationWatts/m^2,SoftwareType,DateUTC
2013-05-05 07:55:00,45.7,41.7,0.00,NNW,338,5.4,5.4,86,0.00,,---,0.00,0.00,VWS V14.01,2013-05-05 12:55:00,
2013-05-05 07:57:00,45.7,41.7,0.00,NNW,338,5.4,5.4,86,0.00,,---,0.00,0.00,VWS V14.01,2013-05-05 12:57:00,
2013-05-05 07:58:00,45.7,41.7,0.00,NNW,338,5.4,5.4,86,0.00,,---,0.00,0.00,VWS V14.01,2013-05-05 12:58:00,
2013-05-05 08:00:00,45.7,41.7,0.00,NNW,338,5.4,5.4,86,0.00,,---,0.00,0.00,VWS V14.01,2013-05-05 13:00:00,
2013-05-05 08:06:00,45.7,41.7,30.00,NW,315,4.0,4.9,86,0.00,,---,0.00,0.00,VWS V14.01,2013-05-05 13:06:00,
2013-05-05 08:11:00,45.9,41.9,30.00,NW,315,5.6,5.6,86,0.00,,---,0.00,0.00,VWS V14.01,2013-05-05 13:11:00,
2013-05-05 08:16:00,45.7,41.7,30.00,NNW,338,4.0,4.0,86,0.00,,---,0.00,0.00,VWS V14.01,2013-05-05 13:16:00,
2013-05-05 08:23:00,45.7,41.7,30.00,NNW,338,5.4,5.4,86,0.00,,---,0.00,0.00,VWS V14.01,2013-05-05 13:23:00,
2013-05-05 08:28:00,45.9,42.2,30.00,NW,315,7.8,7.8,87,0.00,,---,0.00,0.00,VWS V14.01,2013-05-05 13:28:00,
2013-05-05 08:34:00,45.9,42.2,30.00,North,0,6.3,6.3,87,0.00,,---,0.00,0.00,VWS V14.01,2013-05-05 13:34:00,
2013-05-05 08:39:00,46.0,42.4,30.00,NNE,22,4.9,4.9,87,0.00,,---,0.00,0.00,VWS V14.01,2013-05-05 13:39:00,
2013-05-05 08:45:00,46.0,42.7,30.00,NNE,22,3.1,6.3,88,0.00,,---,0.00,0.00,VWS V14.01,2013-05-05 13:45:00,
2013-05-05 08:51:00,46.0,42.4,30.00,NNW,338,7.6,7.6,87,0.00,,---,0.00,0.00,VWS V14.01,2013-05-05 13:51:00,
2013-05-05 08:56:00,45.9,42.2,30.00,NNW,338,6.0,6.0,87,0.00,,---,0.00,0.00,VWS V14.01,2013-05-05 13:56:00,
2013-05-05 09:02:00,46.0,42.7,30.00,NNE,22,4.0,6.7,88,0.00,,---,0.00,0.00,VWS V14.01,2013-05-05 14:02:00,
2013-05-05 09:07:00,46.0,42.7,30.00,North,0,7.2,458.3,88,0.00,,---,0.00,0.00,VWS V14.01,2013-05-05 14:07:00,
2013-05-05 09:12:00,46.0,42.7,30.00,West,270,3.6,458.3,88,0.00,,---,0.00,0.00,VWS V14.01,2013-05-05 14:12:00,
2013-05-05 09:17:00,46.0,42.7,30.00,NNW,338,5.6,5.6,88,0.00,,---,0.00,0.00,VWS V14.01,2013-05-05 14:17:00,
2013-05-05 09:23:00,46.0,42.7,30.00,NNW,338,3.8,3.8,88,0.00,,---,0.00,0.00,VWS V14.01,2013-05-05 14:23:00,
2013-05-05 09:29:00,46.2,42.9,30.03,North,0,4.3,5.4,88,0.00,,---,0.00,0.00,VWS V14.01,2013-05-05 14:29:00,
2013-05-05 09:35:00,46.2,42.9,30.03,NNE,22,4.9,458.3,88,0.00,,---,0.00,0.00,VWS V14.01,2013-05-05 14:35:00,
2013-05-05 09:41:00,0.0,0.0,30.03,North,0,4.0,4.0,0,0.00,,---,0.00,0.00,VWS V14.01,2013-05-05 14:41:00,
2013-05-05 09:47:00,0.0,0.0,30.03,NNE,22,4.3,4.3,0,0.00,,---,0.00,0.00,VWS V14.01,2013-05-05 14:47:00,
2013-05-05 09:53:00,46.8,44.0,30.03,NE,45,4.3,4.3,90,0.00,,---,0.00,0.00,VWS V14.01,2013-05-05 14:53:00,
2013-05-05 09:59:00,46.8,44.0,30.03,NNW,338,8.1,8.1,90,0.00,,---,0.00,0.00,VWS V14.01,2013-05-05 14:59:00,
2013-05-05 10:05:00,46.9,44.2,30.03,NNE,22,4.9,8.1,90,0.00,,---,0.00,0.00,VWS V14.01,2013-05-05 15:05:00,
2013-05-05 10:10:00,47.3,44.5,30.03,NNW,338,5.6,5.6,90,0.00,,---,0.00,0.00,VWS V14.01,2013-05-05 15:10:00,
2013-05-05 10:16:00,47.3,44.5,30.03,NNW,338,6.3,6.3,90,0.00,,---,0.00,0.00,VWS V14.01,2013-05-05 15:16:00,
2013-05-05 10:21:00,47.3,44.5,30.03,North,0,6.3,6.3,90,0.00,,---,0.00,0.00,VWS V14.01,2013-05-05 15:21:00,
2013-05-05 10:27:00,47.3,44.2,30.03,NNW,338,6.0,6.0,89,0.00,,---,0.00,0.00,VWS V14.01,2013-05-05 15:27:00,
2013-05-05 10:32:00,47.3,44.2,30.03,NNW,338,5.4,6.0,89,0.00,,---,0.00,0.00,VWS V14.01,2013-05-05 15:32:00,
2013-05-05 10:37:00,47.3,44.2,30.03,NNE,22,5.6,5.6,89,0.00,,---,0.00,0.00,VWS V14.01,2013-05-05 15:37:00,
2013-05-05 10:43:00,47.3,44.2,30.03,NNE,22,3.8,5.4,89,0.00,,---,0.00,0.00,VWS V14.01,2013-05-05 15:43:00,
2013-05-05 10:48:00,47.3,44.2,30.03,NNE,22,5.6,5.6,89,0.00,,---,0.00,0.00,VWS V14.01,2013-05-05 15:48:00,
2013-05-05 10:54:00,47.3,44.2,30.03,NNW,338,6.0,6.0,89,0.00,,---,0.00,0.00,VWS V14.01,2013-05-05 15:54:00,
2013-05-05 10:59:00,47.7,44.6,30.03,North,0,3.1,4.9,89,0.00,,---,0.00,0.00,VWS V14.01,2013-05-05 15:59:00,
2013-05-05 11:04:00,47.8,45.0,30.03,North,0,6.9,6.9,90,0.00,,---,0.00,0.00,VWS V14.01,2013-05-05 16:04:00,
2013-05-05 11:10:00,47.7,44.6,30.03,NNE,22,2.9,3.8,89,0.00,,---,0.00,0.00,VWS V14.01,2013-05-05 16:10:00,
2013-05-05 11:15:00,47.8,44.8,30.03,NNE,22,3.4,3.4,89,0.00,,---,0.00,0.00,VWS V14.01,2013-05-05 16:15:00,
2013-05-05 11:20:00,48.0,44.9,30.03,NNE,22,3.4,3.4,89,0.00,,---,0.00,0.00,VWS V14.01,2013-05-05 16:20:00,
2013-05-05 11:27:00,48.0,44.9,30.03,NNW,338,7.6,7.6,89,0.00,,---,0.00,0.00,VWS V14.01,2013-05-05 16:27:00,
2013-05-05 11:35:00,48.0,44.9,0.00,NNW,338,8.5,8.5,89,0.00,,---,0.00,0.00,VWS V14.01,2013-05-05 16:35:00,
2013-05-05 11:37:00,48.0,44.9,30.03,NNW,338,5.4,5.4,89,0.00,,---,0.00,0.00,VWS V14.01,2013-05-05 16:37:00,
2013-05-05 13:22:00,51.8,46.8,30.03,NW,315,6.0,6.0,83,0.00,,---,0.00,0.00,VWS V14.01,2013-05-05 18:22:00,
2013-05-05 13:27:00,52.0,47.3,30.03,WNW,292,3.8,6.3,84,0.00,,---,0.00,0.00,VWS V14.01,2013-05-05 18:27:00,
2013-05-05 13:33:00,52.2,47.2,30.03,WNW,292,8.1,8.1,83,0.00,,---,0.00,0.00,VWS V14.01,2013-05-05 18:33:00,
2013-05-05 13:38:00,52.3,46.7,30.03,NNE,22,8.7,8.7,81,0.00,,---,0.00,0.00,VWS V14.01,2013-05-05 18:38:00,
2013-05-05 13:44:00,52.3,46.7,30.03,NNW,338,6.0,6.0,81,0.00,,---,0.00,0.00,VWS V14.01,2013-05-05 18:44:00,
2013-05-05 13:50:00,52.9,46.9,30.03,NNW,338,7.8,7.8,80,0.00,,---,0.00,0.00,VWS V14.01,2013-05-05 18:50:00,
2013-05-05 13:56:00,52.9,46.9,30.03,NNW,338,5.4,5.4,80,0.00,,---,0.00,0.00,VWS V14.01,2013-05-05 18:56:00,
2013-05-05 14:02:00,52.9,46.2,30.03,NW,315,6.5,7.6,78,0.00,,---,0.00,0.00,VWS V14.01,2013-05-05 19:02:00,
2013-05-05 14:07:00,53.4,46.7,30.03,NW,315,4.9,4.9,78,0.00,,---,0.00,0.00,VWS V14.01,2013-05-05 19:07:00,
2013-05-05 14:12:00,53.6,45.9,30.03,NW,315,8.7,8.7,75,0.00,,---,0.00,0.00,VWS V14.01,2013-05-05 19:12:00,
2013-05-05 14:17:00,53.2,44.8,30.03,NNW,338,5.4,5.4,73,0.00,,---,0.00,0.00,VWS V14.01,2013-05-05 19:17:00,
2013-05-05 14:23:00,53.2,44.8,30.00,NNW,338,5.4,5.4,73,0.00,,---,0.00,0.00,VWS V14.01,2013-05-05 19:23:00,
2013-05-05 14:28:00,53.4,45.0,30.00,NNW,338,5.8,6.0,73,0.00,,---,0.00,0.00,VWS V14.01,2013-05-05 19:28:00,
2013-05-05 14:33:00,53.4,45.0,30.00,NNW,338,7.2,7.2,73,0.00,,---,0.00,0.00,VWS V14.01,2013-05-05 19:33:00,
2013-05-05 14:38:00,54.0,45.5,30.03,NNW,338,7.2,7.4,73,0.00,,---,0.00,0.00,VWS V14.01,2013-05-05 19:38:00,
2013-05-05 14:43:00,53.8,45.0,30.03,North,0,5.6,5.6,72,0.00,,---,5.70,0.00,VWS V14.01,2013-05-05 19:43:00,
2013-05-05 14:49:00,53.6,44.1,30.03,WNW,292,5.8,5.8,70,0.00,,---,5.70,0.00,VWS V14.01,2013-05-05 19:49:00,
2013-05-05 14:54:00,53.6,44.1,30.03,NNW,338,7.4,7.4,70,0.00,,---,5.70,0.00,VWS V14.01,2013-05-05 19:54:00,
2013-05-05 15:00:00,54.1,43.8,30.00,NNW,338,8.5,10.3,68,0.00,,---,5.70,0.00,VWS V14.01,2013-05-05 20:00:00,
2013-05-05 15:05:00,54.1,43.8,30.00,NW,315,6.5,7.6,68,0.00,,---,5.70,0.00,VWS V14.01,2013-05-05 20:05:00,
2013-05-05 15:10:00,54.5,44.5,30.00,WNW,292,6.5,6.5,69,0.00,,---,5.70,0.00,VWS V14.01,2013-05-05 20:10:00,
2013-05-05 15:16:00,54.3,43.6,30.00,NW,315,7.6,9.8,67,0.00,,---,5.70,0.00,VWS V14.01,2013-05-05 20:16:00,
2013-05-05 15:22:00,54.3,43.6,30.00,NNW,338,7.6,7.8,67,0.00,,---,5.70,0.00,VWS V14.01,2013-05-05 20:22:00,
2013-05-05 15:28:00,54.5,43.8,30.00,NW,315,10.3,10.3,67,0.00,,---,5.70,0.00,VWS V14.01,2013-05-05 20:28:00,
2013-05-05 15:33:00,54.9,43.7,30.00,NNW,338,7.8,9.8,66,0.00,,---,5.70,0.00,VWS V14.01,2013-05-05 20:33:00,
2013-05-05 15:38:00,54.9,43.3,30.00,NW,315,8.7,8.7,65,0.00,,---,5.70,0.00,VWS V14.01,2013-05-05 20:38:00,
2013-05-05 15:43:00,54.9,43.3,30.00,NNW,338,6.5,7.4,65,0.00,,---,5.70,0.00,VWS V14.01,2013-05-05 20:43:00,
2013-05-05 15:48:00,55.4,43.8,30.00,NW,315,8.7,8.7,65,0.00,,---,5.70,0.00,VWS V14.01,2013-05-05 20:48:00,
2013-05-05 15:53:00,55.8,44.2,30.00,NNW,338,6.3,8.1,65,0.00,,---,5.70,0.00,VWS V14.01,2013-05-05 20:53:00,
2013-05-05 15:58:00,55.9,44.4,30.00,NW,315,11.0,11.0,65,0.00,,---,5.70,0.00,VWS V14.01,2013-05-05 20:58:00,
2013-05-05 16:03:00,56.3,44.3,30.00,NNW,338,9.0,9.0,64,0.00,,---,5.70,0.00,VWS V14.01,2013-05-05 21:03:00,
2013-05-05 16:09:00,56.3,43.5,30.00,NNE,22,10.3,10.3,62,0.00,,---,5.70,0.00,VWS V14.01,2013-05-05 21:09:00,
2013-05-05 16:15:00,56.3,43.0,30.00,NNW,338,6.5,6.5,61,0.00,,---,5.70,0.00,VWS V14.01,2013-05-05 21:15:00,
2013-05-05 16:20:00,56.3,42.6,29.97,NNE,22,8.7,9.8,60,0.00,,---,5.70,0.00,VWS V14.01,2013-05-05 21:20:00,
2013-05-05 16:26:00,56.3,42.2,29.97,NW,315,8.1,10.5,59,0.00,,---,5.70,0.00,VWS V14.01,2013-05-05 21:26:00,
2013-05-05 16:31:00,56.5,42.8,29.97,NNW,338,6.5,6.5,60,0.00,,---,5.70,0.00,VWS V14.01,2013-05-05 21:31:00,
2013-05-05 16:37:00,56.3,42.6,29.97,NNW,338,6.3,6.3,60,0.00,,---,5.70,0.00,VWS V14.01,2013-05-05 21:37:00,
2013-05-05 16:42:00,56.5,42.8,29.97,NNW,338,7.6,7.6,60,0.00,,---,5.70,0.00,VWS V14.01,2013-05-05 21:42:00,
2013-05-05 16:48:00,56.5,42.8,29.97,NNW,338,6.5,6.5,60,0.00,,---,5.70,0.00,VWS V14.01,2013-05-05 21:48:00,
2013-05-05 16:54:00,55.9,41.4,29.97,North,0,7.6,8.5,58,0.00,,---,5.70,0.00,VWS V14.01,2013-05-05 21:54:00,
2013-05-05 17:00:00,55.9,41.4,29.97,North,0,9.2,9.2,58,0.00,,---,5.70,0.00,VWS V14.01,2013-05-05 22:00:00,
2013-05-05 17:05:00,55.8,40.8,29.97,NNW,338,7.2,9.6,57,0.00,,---,5.70,0.00,VWS V14.01,2013-05-05 22:05:00,
2013-05-05 17:11:00,55.8,40.8,29.97,NW,315,6.0,6.0,57,0.00,,---,5.70,0.00,VWS V14.01,2013-05-05 22:11:00,
2013-05-05 17:17:00,55.9,41.4,29.97,NNE,22,8.1,8.1,58,0.00,,---,5.70,0.00,VWS V14.01,2013-05-05 22:17:00,
2013-05-05 17:23:00,55.9,41.4,29.97,NNW,338,8.7,8.7,58,0.00,,---,5.70,0.00,VWS V14.01,2013-05-05 22:23:00,
2013-05-05 17:28:00,55.9,40.9,29.97,NNW,338,5.4,8.7,57,0.00,,---,5.70,0.00,VWS V14.01,2013-05-05 22:28:00,
2013-05-05 17:34:00,55.9,40.9,29.97,NNW,338,4.9,5.6,57,0.00,,---,5.70,0.00,VWS V14.01,2013-05-05 22:34:00,
2013-05-05 17:39:00,55.9,41.4,29.97,NNW,338,7.6,7.6,58,0.00,,---,5.70,0.00,VWS V14.01,2013-05-05 22:39:00,
2013-05-05 17:44:00,55.9,40.9,29.97,NNE,22,6.5,6.5,57,0.00,,---,5.70,0.00,VWS V14.01,2013-05-05 22:44:00,
2013-05-05 17:50:00,55.9,40.9,29.97,NNW,338,11.0,11.0,57,0.00,,---,5.70,0.00,VWS V14.01,2013-05-05 22:50:00,
2013-05-05 17:56:00,55.9,40.5,29.97,NNW,338,7.6,7.6,56,0.00,,---,5.70,0.00,VWS V14.01,2013-05-05 22:56:00,
2013-05-05 18:01:00,55.9,40.5,30.00,NNW,338,8.5,8.5,56,0.00,,---,5.70,0.00,VWS V14.01,2013-05-05 23:01:00,
2013-05-05 18:06:00,56.1,40.7,29.97,NNW,338,6.5,6.7,56,0.00,,---,5.70,0.00,VWS V14.01,2013-05-05 23:06:00,
2013-05-05 18:12:00,56.1,40.7,29.97,NW,315,7.6,7.6,56,0.00,,---,5.70,0.00,VWS V14.01,2013-05-05 23:12:00,
2013-05-05 18:17:00,56.1,40.7,29.97,WNW,292,6.9,8.1,56,0.00,,---,5.70,0.00,VWS V14.01,2013-05-05 23:17:00,
2013-05-05 18:23:00,56.1,40.2,29.97,NW,315,4.9,5.8,55,0.00,,---,5.70,0.00,VWS V14.01,2013-05-05 23:23:00,
2013-05-05 18:29:00,56.1,40.2,29.97,WNW,292,3.8,3.8,55,0.00,,---,5.70,0.00,VWS V14.01,2013-05-05 23:29:00,
2013-05-05 18:34:00,55.9,40.0,29.97,NNW,338,5.4,6.0,55,0.00,,---,5.70,0.00,VWS V14.01,2013-05-05 23:34:00,
2013-05-05 18:40:00,55.9,40.0,29.97,NNW,338,6.3,6.3,55,0.00,,---,5.70,0.00,VWS V14.01,2013-05-05 23:40:00,
2013-05-05 18:46:00,55.8,39.8,29.97,NNW,338,6.5,9.0,55,0.00,,---,5.70,0.00,VWS V14.01,2013-05-05 23:46:00,
2013-05-05 18:51:00,55.8,39.8,29.97,NNW,338,6.5,6.7,55,0.00,,---,5.70,0.00,VWS V14.01,2013-05-05 23:51:00,
2013-05-05 18:57:00,55.8,39.8,29.97,NNW,338,5.6,8.5,55,0.00,,---,5.70,0.00,VWS V14.01,2013-05-05 23:57:00,
2013-05-05 19:02:00,55.6,39.7,29.97,NNW,338,5.4,5.4,55,0.00,,---,5.70,0.00,VWS V14.01,2013-05-06 00:02:00,
2013-05-05 19:08:00,0.0,0.0,29.97,North,0,6.3,6.3,0,0.00,,---,5.70,0.00,VWS V14.01,2013-05-06 00:08:00,
2013-05-05 19:14:00,0.0,0.0,29.97,North,0,7.6,8.5,0,0.00,,---,5.70,0.00,VWS V14.01,2013-05-06 00:14:00,
2013-05-05 19:20:00,55.6,40.2,29.97,NNW,338,3.8,5.6,56,0.00,,---,5.70,0.00,VWS V14.01,2013-05-06 00:20:00,
2013-05-05 19:25:00,55.4,40.4,29.97,NNW,338,5.8,5.8,57,0.00,,---,5.70,0.00,VWS V14.01,2013-05-06 00:25:00,
2013-05-05 19:31:00,55.4,40.4,29.97,North,0,5.8,5.8,57,0.00,,---,5.70,0.00,VWS V14.01,2013-05-06 00:31:00,
2013-05-05 19:38:00,55.2,40.3,29.97,NNW,338,6.3,7.2,57,0.00,,---,5.70,0.00,VWS V14.01,2013-05-06 00:38:00,
2013-05-05 19:44:00,55.2,40.3,29.97,NW,315,5.6,6.3,57,0.00,,---,5.70,0.00,VWS V14.01,2013-05-06 00:44:00,
2013-05-05 19:50:00,55.2,40.3,29.97,NNE,22,6.0,6.0,57,0.00,,---,5.70,0.00,VWS V14.01,2013-05-06 00:50:00,
2013-05-05 19:55:00,55.2,40.3,29.97,NNE,22,6.0,6.0,57,0.00,,---,5.70,0.00,VWS V14.01,2013-05-06 00:55:00,
2013-05-05 20:00:00,55.2,40.3,29.97,NNW,338,5.8,5.8,57,0.00,,---,5.70,0.00,VWS V14.01,2013-05-06 01:00:00,
2013-05-05 20:06:00,55.2,40.3,29.97,NNW,338,4.0,8.1,57,0.00,,---,5.70,0.00,VWS V14.01,2013-05-06 01:06:00,
2013-05-05 20:12:00,55.2,40.3,29.94,NNE,22,7.4,8.5,57,0.00,,---,5.70,0.00,VWS V14.01,2013-05-06 01:12:00,
2013-05-05 20:17:00,55.2,40.3,29.94,North,0,8.7,8.7,57,0.00,,---,5.70,0.00,VWS V14.01,2013-05-06 01:17:00,
2013-05-05 20:23:00,54.9,39.9,29.97,NNW,338,5.8,5.8,57,0.00,,---,5.70,0.00,VWS V14.01,2013-05-06 01:23:00,
2013-05-05 20:29:00,54.9,39.9,29.97,North,0,7.8,7.8,57,0.00,,---,5.70,0.00,VWS V14.01,2013-05-06 01:29:00,
2013-05-05 20:35:00,54.9,39.9,29.97,North,0,4.0,4.0,57,0.00,,---,5.70,0.00,VWS V14.01,2013-05-06 01:35:00,
2013-05-05 20:41:00,54.7,39.8,29.97,North,0,5.6,5.6,57,0.00,,---,5.70,0.00,VWS V14.01,2013-05-06 01:41:00,
2013-05-05 20:49:00,54.5,39.6,29.97,NNW,338,8.1,8.1,57,0.00,,---,5.70,0.00,VWS V14.01,2013-05-06 01:49:00,
2013-05-05 20:55:00,54.5,39.6,29.97,NNW,338,7.6,7.6,57,0.00,,---,5.70,0.00,VWS V14.01,2013-05-06 01:55:00,
2013-05-05 21:01:00,54.3,39.9,29.97,North,0,6.0,6.3,58,0.00,,---,5.70,0.00,VWS V14.01,2013-05-06 02:01:00,
2013-05-05 21:06:00,54.3,39.9,29.97,NNW,338,4.0,4.0,58,0.00,,---,5.70,0.00,VWS V14.01,2013-05-06 02:06:00,
2013-05-05 21:12:00,54.3,39.9,29.97,North,0,5.6,5.6,58,0.00,,---,5.70,0.00,VWS V14.01,2013-05-06 02:12:00,
2013-05-05 21:18:00,54.1,39.7,29.97,North,0,5.6,5.6,58,0.00,,---,5.70,0.00,VWS V14.01,2013-05-06 02:18:00,
2013-05-05 21:24:00,54.1,39.7,29.97,NNW,338,5.8,6.5,58,0.00,,---,5.70,0.00,VWS V14.01,2013-05-06 02:24:00,
2013-05-05 21:29:00,54.1,40.1,29.97,NNE,22,3.6,3.6,59,0.00,,---,5.70,0.00,VWS V14.01,2013-05-06 02:29:00,
2013-05-05 21:34:00,54.1,40.1,29.97,NNW,338,4.3,5.4,59,0.00,,---,5.70,0.00,VWS V14.01,2013-05-06 02:34:00,
2013-05-05 21:40:00,54.0,40.0,29.97,NNW,338,4.3,5.4,59,0.00,,---,5.70,0.00,VWS V14.01,2013-05-06 02:40:00,
2013-05-05 21:46:00,54.0,40.0,29.97,NNW,338,7.2,7.6,59,0.00,,---,5.70,0.00,VWS V14.01,2013-05-06 02:46:00,